createdAt,value
2019-04-21T00:00:37.614Z,1017.85
2019-04-21T00:01:41.971Z,1017.83
2019-04-21T00:02:40.949Z,1017.79
2019-04-21T00:03:45.616Z,1017.81
2019-04-21T00:04:54.346Z,1017.80
2019-04-21T00:05:58.645Z,1017.73
2019-04-21T00:06:56.927Z,1017.72
2019-04-21T00:08:01.596Z,1017.73
2019-04-21T00:09:02.706Z,1017.75
2019-04-21T00:09:59.563Z,1017.69
2019-04-21T00:11:02.869Z,1017.70
2019-04-21T00:11:55.388Z,1017.76
2019-04-21T00:12:52.290Z,1017.72
2019-04-21T00:13:52.549Z,1017.74
2019-04-21T00:14:50.996Z,1017.73
2019-04-21T00:15:44.485Z,1017.72
2019-04-21T00:16:44.324Z,1017.70
2019-04-21T00:17:38.970Z,1017.72
2019-04-21T00:18:44.623Z,1017.69
2019-04-21T00:19:39.072Z,1017.68
2019-04-21T00:20:44.201Z,1017.68
2019-04-21T00:21:45.019Z,1017.70
2019-04-21T00:22:48.078Z,1017.69
2019-04-21T00:23:55.348Z,1017.66
2019-04-21T00:24:49.740Z,1017.69
2019-04-21T00:25:48.775Z,1017.69
2019-04-21T00:26:57.499Z,1017.70
2019-04-21T00:27:51.698Z,1017.64
2019-04-21T00:29:07.286Z,1017.71
2019-04-21T00:29:58.781Z,1017.68
2019-04-21T00:30:57.350Z,1017.67
2019-04-21T00:31:52.636Z,1017.71
2019-04-21T00:32:50.920Z,1017.68
2019-04-21T00:33:41.270Z,1017.68
2019-04-21T00:34:41.095Z,1017.69
2019-04-21T00:35:45.386Z,1017.66
2019-04-21T00:36:47.296Z,1017.63
2019-04-21T00:37:53.411Z,1017.62
2019-04-21T00:39:09.975Z,1017.62
2019-04-21T00:40:00.046Z,1017.61
2019-04-21T00:41:01.628Z,1017.65
2019-04-21T00:41:59.197Z,1017.58
2019-04-21T00:42:55.862Z,1017.66
2019-04-21T00:43:51.916Z,1017.65
2019-04-21T00:44:56.588Z,1017.60
2019-04-21T00:45:48.082Z,1017.60
2019-04-21T00:46:51.314Z,1017.62
2019-04-21T00:48:00.909Z,1017.62
2019-04-21T00:48:57.410Z,1017.61
2019-04-21T00:50:02.028Z,1017.58
2019-04-21T00:51:10.933Z,1017.56
2019-04-21T00:52:14.420Z,1017.57
2019-04-21T00:53:00.439Z,1017.56
2019-04-21T00:54:04.166Z,1017.56
2019-04-21T00:55:12.276Z,1017.54
2019-04-21T00:56:03.376Z,1017.51
2019-04-21T00:57:03.675Z,1017.51
2019-04-21T00:58:08.373Z,1017.50
2019-04-21T00:58:59.539Z,1017.52
2019-04-21T01:00:01.212Z,1017.52
2019-04-21T01:00:58.095Z,1017.49
2019-04-21T01:01:55.230Z,1017.50
2019-04-21T01:03:14.749Z,1017.51
2019-04-21T01:03:58.462Z,1017.47
2019-04-21T01:05:57.598Z,1017.44
2019-04-21T01:07:01.619Z,1017.45
2019-04-21T01:07:57.932Z,1017.42
2019-04-21T01:09:00.929Z,1017.42
2019-04-21T01:09:48.842Z,1017.43
2019-04-21T01:10:49.927Z,1017.43
2019-04-21T01:12:05.198Z,1017.41
2019-04-21T01:12:58.437Z,1017.37
2019-04-21T01:13:57.982Z,1017.37
2019-04-21T01:15:04.216Z,1017.34
2019-04-21T01:15:59.206Z,1017.37
2019-04-21T01:16:59.087Z,1017.36
2019-04-21T01:18:01.472Z,1017.38
2019-04-21T01:18:54.776Z,1017.35
2019-04-21T01:19:52.306Z,1017.38
2019-04-21T01:20:36.734Z,1017.38
2019-04-21T01:21:35.778Z,1017.35
2019-04-21T01:22:35.792Z,1017.30
2019-04-21T01:23:35.860Z,1017.34
2019-04-21T01:24:40.207Z,1017.32
2019-04-21T01:25:44.109Z,1017.32
2019-04-21T01:26:47.089Z,1017.31
2019-04-21T01:28:02.253Z,1017.31
2019-04-21T01:28:56.878Z,1017.31
2019-04-21T01:29:59.716Z,1017.30
2019-04-21T01:30:56.889Z,1017.26
2019-04-21T01:31:57.293Z,1017.28
2019-04-21T01:33:03.583Z,1017.31
2019-04-21T01:33:57.482Z,1017.27
2019-04-21T01:34:57.634Z,1017.33
2019-04-21T01:35:55.300Z,1017.30
2019-04-21T01:36:54.789Z,1017.29
2019-04-21T01:37:57.156Z,1017.33
2019-04-21T01:39:02.150Z,1017.30
2019-04-21T01:40:04.108Z,1017.30
2019-04-21T01:40:59.163Z,1017.24
2019-04-21T01:41:58.796Z,1017.25
2019-04-21T01:43:01.134Z,1017.24
2019-04-21T01:43:57.813Z,1017.24
2019-04-21T01:44:58.277Z,1017.25
2019-04-21T01:45:53.562Z,1017.26
2019-04-21T01:46:51.882Z,1017.21
2019-04-21T01:47:56.804Z,1017.23
2019-04-21T01:48:52.527Z,1017.24
2019-04-21T01:49:49.147Z,1017.17
2019-04-21T01:50:56.812Z,1017.20
2019-04-21T01:52:10.811Z,1017.16
2019-04-21T01:52:57.368Z,1017.23
2019-04-21T01:53:55.056Z,1017.21
2019-04-21T01:55:04.904Z,1017.18
2019-04-21T01:55:54.175Z,1017.16
2019-04-21T01:56:55.712Z,1017.19
2019-04-21T01:57:55.305Z,1017.19
2019-04-21T01:58:46.291Z,1017.12
2019-04-21T01:59:51.182Z,1017.14
2019-04-21T02:00:51.947Z,1017.15
2019-04-21T02:02:02.317Z,1017.17
2019-04-21T02:03:04.292Z,1017.15
2019-04-21T02:04:00.021Z,1017.13
2019-04-21T02:05:04.015Z,1017.11
2019-04-21T02:06:07.642Z,1017.11
2019-04-21T02:07:01.330Z,1017.09
2019-04-21T02:07:55.204Z,1017.11
2019-04-21T02:08:56.352Z,1017.14
2019-04-21T02:10:00.839Z,1017.10
2019-04-21T02:11:03.390Z,1017.07
2019-04-21T02:12:05.841Z,1017.14
2019-04-21T02:12:56.698Z,1017.09
2019-04-21T02:14:05.424Z,1017.11
2019-04-21T02:15:06.587Z,1017.14
2019-04-21T02:16:05.476Z,1017.05
2019-04-21T02:16:59.646Z,1017.11
2019-04-21T02:17:59.510Z,1017.07
2019-04-21T02:18:54.617Z,1017.11
2019-04-21T02:20:47.584Z,1017.03
2019-04-21T02:21:47.511Z,1017.02
2019-04-21T02:23:10.395Z,1017.06
2019-04-21T02:23:59.861Z,1017.05
2019-04-21T02:25:02.863Z,1017.06
2019-04-21T02:25:51.029Z,1016.98
2019-04-21T02:26:59.235Z,1017.01
2019-04-21T02:28:01.255Z,1016.97
2019-04-21T02:29:01.836Z,1017.02
2019-04-21T02:30:02.720Z,1016.97
2019-04-21T02:31:18.154Z,1016.98
2019-04-21T02:34:13.486Z,1016.93
2019-04-21T02:37:38.369Z,1016.91
2019-04-21T02:38:13.232Z,1016.89
2019-04-21T02:39:23.162Z,1016.91
2019-04-21T02:40:22.297Z,1016.91
2019-04-21T02:41:11.239Z,1016.89
2019-04-21T02:42:02.051Z,1016.86
2019-04-21T02:44:12.421Z,1016.91
2019-04-21T02:45:12.382Z,1016.91
2019-04-21T02:46:54.548Z,1016.90
2019-04-21T02:48:08.867Z,1016.88
2019-04-21T02:50:10.063Z,1016.83
2019-04-21T02:52:18.226Z,1016.82
2019-04-21T02:53:16.357Z,1016.75
2019-04-21T02:55:11.307Z,1016.74
2019-04-21T02:56:14.496Z,1016.75
2019-04-21T02:57:09.223Z,1016.72
2019-04-21T02:58:09.761Z,1016.71
2019-04-21T02:59:10.112Z,1016.73
2019-04-21T03:00:13.846Z,1016.69
2019-04-21T03:01:15.990Z,1016.70
2019-04-21T03:02:25.073Z,1016.69
2019-04-21T03:03:04.686Z,1016.68
2019-04-21T03:04:11.216Z,1016.71
2019-04-21T03:05:14.832Z,1016.68
2019-04-21T03:06:10.522Z,1016.66
2019-04-21T03:08:08.477Z,1016.62
2019-04-21T03:09:09.173Z,1016.64
2019-04-21T03:11:09.064Z,1016.60
2019-04-21T03:14:31.219Z,1016.59
2019-04-21T03:15:21.892Z,1016.58
2019-04-21T03:16:23.409Z,1016.57
2019-04-21T03:17:09.651Z,1016.55
2019-04-21T03:19:08.817Z,1016.51
2019-04-21T03:20:07.194Z,1016.53
2019-04-21T03:21:10.851Z,1016.50
2019-04-21T03:24:05.292Z,1016.51
2019-04-21T03:26:10.182Z,1016.44
2019-04-21T03:27:32.831Z,1016.45
2019-04-21T03:28:11.709Z,1016.46
2019-04-21T03:29:12.550Z,1016.47
2019-04-21T03:30:17.023Z,1016.46
2019-04-21T03:32:54.213Z,1016.46
2019-04-21T03:36:38.007Z,1016.45
2019-04-21T03:37:14.053Z,1016.45
2019-04-21T03:39:01.166Z,1016.42
2019-04-21T03:40:08.084Z,1016.47
2019-04-21T03:41:04.031Z,1016.45
2019-04-21T03:43:04.945Z,1016.43
2019-04-21T03:44:08.062Z,1016.46
2019-04-21T03:45:20.552Z,1016.43
2019-04-21T03:46:28.230Z,1016.40
2019-04-21T03:47:06.902Z,1016.42
2019-04-21T03:49:12.648Z,1016.46
2019-04-21T03:51:07.285Z,1016.42
2019-04-21T03:52:11.932Z,1016.48
2019-04-21T03:53:20.298Z,1016.44
2019-04-21T03:54:07.922Z,1016.48
2019-04-21T03:55:25.226Z,1016.45
2019-04-21T03:56:00.608Z,1016.43
2019-04-21T03:59:09.964Z,1016.47
2019-04-21T04:00:11.008Z,1016.47
2019-04-21T04:01:06.027Z,1016.43
2019-04-21T04:02:05.872Z,1016.45
2019-04-21T04:03:23.712Z,1016.43
2019-04-21T04:04:16.071Z,1016.41
2019-04-21T04:05:11.063Z,1016.40
2019-04-21T04:06:11.485Z,1016.41
2019-04-21T04:08:09.439Z,1016.31
2019-04-21T04:10:08.273Z,1016.31
2019-04-21T04:11:14.365Z,1016.32
2019-04-21T04:13:05.550Z,1016.36
2019-04-21T04:14:14.143Z,1016.28
2019-04-21T04:15:08.679Z,1016.34
2019-04-21T04:16:05.952Z,1016.29
2019-04-21T04:17:17.783Z,1016.32
2019-04-21T04:18:04.230Z,1016.31
2019-04-21T04:19:26.463Z,1016.33
2019-04-21T04:20:08.984Z,1016.27
2019-04-21T04:21:12.674Z,1016.31
2019-04-21T04:22:14.730Z,1016.31
2019-04-21T04:23:08.162Z,1016.31
2019-04-21T04:24:09.007Z,1016.29
2019-04-21T04:25:07.363Z,1016.28
2019-04-21T04:26:07.415Z,1016.28
2019-04-21T04:27:12.087Z,1016.30
2019-04-21T04:28:14.111Z,1016.32
2019-04-21T04:29:20.020Z,1016.30
2019-04-21T04:30:20.171Z,1016.29
2019-04-21T04:31:22.278Z,1016.31
2019-04-21T04:33:07.976Z,1016.27
2019-04-21T04:34:20.048Z,1016.28
2019-04-21T04:35:10.331Z,1016.33
2019-04-21T04:38:07.139Z,1016.29
2019-04-21T04:39:14.177Z,1016.29
2019-04-21T04:40:10.532Z,1016.30
2019-04-21T04:41:15.364Z,1016.29
2019-04-21T04:42:18.225Z,1016.31
2019-04-21T04:43:13.170Z,1016.36
2019-04-21T04:44:13.693Z,1016.34
2019-04-21T04:46:09.596Z,1016.37
2019-04-21T04:47:10.404Z,1016.33
2019-04-21T04:48:05.536Z,1016.31
2019-04-21T04:49:11.469Z,1016.36
2019-04-21T04:50:26.296Z,1016.34
2019-04-21T04:51:25.104Z,1016.28
2019-04-21T04:52:19.287Z,1016.28
2019-04-21T04:53:01.883Z,1016.31
2019-04-21T04:54:03.856Z,1016.32
2019-04-21T04:55:06.779Z,1016.29
2019-04-21T04:56:03.845Z,1016.32
2019-04-21T04:57:18.267Z,1016.33
2019-04-21T04:58:23.451Z,1016.33
2019-04-21T05:00:15.357Z,1016.36
2019-04-21T05:01:14.202Z,1016.34
2019-04-21T05:02:14.943Z,1016.32
2019-04-21T05:03:01.415Z,1016.35
2019-04-21T05:06:12.002Z,1016.30
2019-04-21T05:07:11.842Z,1016.28
2019-04-21T05:08:14.951Z,1016.27
2019-04-21T05:09:10.863Z,1016.25
2019-04-21T05:09:59.784Z,1016.24
2019-04-21T05:11:07.763Z,1016.25
2019-04-21T05:12:03.587Z,1016.25
2019-04-21T05:12:56.945Z,1016.21
2019-04-21T05:14:13.364Z,1016.22
2019-04-21T05:15:12.741Z,1016.27
2019-04-21T05:16:02.510Z,1016.32
2019-04-21T05:17:02.260Z,1016.29
2019-04-21T05:18:22.428Z,1016.31
2019-04-21T05:20:08.634Z,1016.30
2019-04-21T05:21:16.070Z,1016.24
2019-04-21T05:22:04.987Z,1016.31
2019-04-21T05:22:59.752Z,1016.25
2019-04-21T05:23:46.968Z,1016.25
2019-04-21T05:24:53.820Z,1016.23
2019-04-21T05:25:51.137Z,1016.22
2019-04-21T05:26:50.255Z,1016.19
2019-04-21T05:27:47.248Z,1016.21
2019-04-21T05:28:47.322Z,1016.17
2019-04-21T05:29:58.696Z,1016.17
2019-04-21T05:30:55.340Z,1016.14
2019-04-21T05:31:56.397Z,1016.14
2019-04-21T05:33:00.303Z,1016.12
2019-04-21T05:33:57.667Z,1016.06
2019-04-21T05:34:56.996Z,1016.08
2019-04-21T05:35:55.484Z,1016.10
2019-04-21T05:36:56.769Z,1016.09
2019-04-21T05:37:58.639Z,1016.03
2019-04-21T05:38:53.449Z,1016.06
2019-04-21T05:39:51.207Z,1016.11
2019-04-21T05:40:48.291Z,1015.99
2019-04-21T05:41:43.036Z,1015.99
2019-04-21T05:42:52.962Z,1016.03
2019-04-21T05:44:01.612Z,1016.02
2019-04-21T05:45:05.011Z,1016.07
2019-04-21T05:45:59.687Z,1016.02
2019-04-21T05:47:07.835Z,1016.03
2019-04-21T05:48:10.135Z,1016.03
2019-04-21T05:48:54.772Z,1016.03
2019-04-21T05:49:49.907Z,1016.05
2019-04-21T05:50:54.057Z,1016.04
2019-04-21T05:51:54.969Z,1016.04
2019-04-21T05:52:53.523Z,1016.01
2019-04-21T05:54:04.895Z,1016.02
2019-04-21T05:55:07.603Z,1016.03
2019-04-21T05:55:58.634Z,1016.05
2019-04-21T05:56:55.506Z,1016.00
2019-04-21T05:58:01.291Z,1015.98
2019-04-21T05:58:58.139Z,1015.99
2019-04-21T05:59:53.130Z,1016.00
2019-04-21T06:02:06.169Z,1016.03
2019-04-21T06:02:59.222Z,1015.98
2019-04-21T06:03:57.684Z,1015.98
2019-04-21T06:05:05.571Z,1015.98
2019-04-21T06:06:00.473Z,1016.00
2019-04-21T06:06:58.013Z,1016.00
2019-04-21T06:07:52.679Z,1015.99
2019-04-21T06:08:53.879Z,1016.02
2019-04-21T06:10:06.919Z,1016.03
2019-04-21T06:11:14.848Z,1015.95
2019-04-21T06:11:59.823Z,1015.98
2019-04-21T06:13:02.365Z,1016.01
2019-04-21T06:15:02.694Z,1015.99
2019-04-21T06:16:01.078Z,1015.95
2019-04-21T06:16:59.706Z,1015.96
2019-04-21T06:17:58.227Z,1015.94
2019-04-21T06:19:00.723Z,1015.92
2019-04-21T06:21:01.353Z,1015.88
2019-04-21T06:21:51.171Z,1015.90
2019-04-21T06:22:56.531Z,1015.89
2019-04-21T06:23:51.506Z,1015.88
2019-04-21T06:25:24.329Z,1015.84
2019-04-21T06:26:08.775Z,1015.85
2019-04-21T06:27:59.001Z,1015.86
2019-04-21T06:29:13.495Z,1015.86
2019-04-21T06:31:05.880Z,1015.84
2019-04-21T06:32:56.731Z,1015.77
2019-04-21T06:34:11.220Z,1015.78
2019-04-21T06:36:57.081Z,1015.74
2019-04-21T06:37:56.999Z,1015.70
2019-04-21T06:39:04.725Z,1015.74
2019-04-21T06:40:09.292Z,1015.71
2019-04-21T06:40:56.431Z,1015.74
2019-04-21T06:41:57.133Z,1015.67
2019-04-21T06:43:08.218Z,1015.73
2019-04-21T06:44:13.035Z,1015.75
2019-04-21T06:44:57.621Z,1015.71
2019-04-21T06:45:53.996Z,1015.76
2019-04-21T06:46:48.933Z,1015.75
2019-04-21T06:47:59.511Z,1015.67
2019-04-21T06:49:00.184Z,1015.69
2019-04-21T06:49:53.725Z,1015.66
2019-04-21T06:50:59.365Z,1015.68
2019-04-21T06:51:54.584Z,1015.72
2019-04-21T06:53:01.008Z,1015.68
2019-04-21T06:54:03.557Z,1015.73
2019-04-21T06:54:57.162Z,1015.76
2019-04-21T06:55:52.519Z,1015.74
2019-04-21T06:56:51.567Z,1015.73
2019-04-21T06:57:51.639Z,1015.75
2019-04-21T06:58:57.921Z,1015.71
2019-04-21T06:59:53.655Z,1015.72
2019-04-21T07:00:56.218Z,1015.72
2019-04-21T07:01:59.782Z,1015.74
2019-04-21T07:03:04.725Z,1015.72
2019-04-21T07:04:09.835Z,1015.70
2019-04-21T07:04:56.081Z,1015.70
2019-04-21T07:05:57.276Z,1015.68
2019-04-21T07:06:53.697Z,1015.64
2019-04-21T07:08:08.860Z,1015.66
2019-04-21T07:09:04.380Z,1015.67
2019-04-21T07:09:58.103Z,1015.63
2019-04-21T07:10:56.747Z,1015.64
2019-04-21T07:11:52.656Z,1015.64
2019-04-21T07:12:51.626Z,1015.58
2019-04-21T07:14:05.672Z,1015.59
2019-04-21T07:14:54.715Z,1015.58
2019-04-21T07:15:56.832Z,1015.58
2019-04-21T07:16:59.532Z,1015.57
2019-04-21T07:18:00.164Z,1015.58
2019-04-21T07:19:00.038Z,1015.59
2019-04-21T07:19:55.407Z,1015.58
2019-04-21T07:20:53.274Z,1015.56
2019-04-21T07:21:52.543Z,1015.56
2019-04-21T07:22:56.827Z,1015.55
2019-04-21T07:23:58.954Z,1015.55
2019-04-21T07:25:00.336Z,1015.54
2019-04-21T07:25:53.141Z,1015.53
2019-04-21T07:26:58.469Z,1015.51
2019-04-21T07:27:58.039Z,1015.54
2019-04-21T07:29:02.931Z,1015.51
2019-04-21T07:30:02.532Z,1015.54
2019-04-21T07:31:00.568Z,1015.50
2019-04-21T07:31:59.289Z,1015.52
2019-04-21T07:33:06.387Z,1015.53
2019-04-21T07:34:01.614Z,1015.50
2019-04-21T07:35:03.614Z,1015.53
2019-04-21T07:35:56.882Z,1015.53
2019-04-21T07:36:56.152Z,1015.48
2019-04-21T07:37:54.787Z,1015.47
2019-04-21T07:38:51.438Z,1015.51
2019-04-21T07:39:52.812Z,1015.51
2019-04-21T07:40:45.555Z,1015.50
2019-04-21T07:41:48.536Z,1015.49
2019-04-21T07:42:49.814Z,1015.48
2019-04-21T07:43:49.589Z,1015.51
2019-04-21T07:44:46.094Z,1015.55
2019-04-21T07:45:51.584Z,1015.49
2019-04-21T07:46:46.949Z,1015.52
2019-04-21T07:47:53.105Z,1015.47
2019-04-21T07:48:49.750Z,1015.46
2019-04-21T07:49:57.495Z,1015.41
2019-04-21T07:50:54.385Z,1015.47
2019-04-21T07:51:56.415Z,1015.44
2019-04-21T07:53:05.063Z,1015.45
2019-04-21T07:54:11.735Z,1015.49
2019-04-21T07:54:59.660Z,1015.44
2019-04-21T07:55:34.236Z,1015.34
2019-04-21T07:56:36.228Z,1015.36
2019-04-21T07:57:45.600Z,1015.34
2019-04-21T07:58:58.776Z,1015.37
2019-04-21T08:00:56.301Z,1015.38
2019-04-21T08:01:55.029Z,1015.39
2019-04-21T08:02:54.023Z,1015.35
2019-04-21T08:03:58.150Z,1015.36
2019-04-21T08:06:20.739Z,1015.35
2019-04-21T08:06:51.618Z,1015.32
2019-04-21T08:07:57.991Z,1015.31
2019-04-21T08:08:52.901Z,1015.30
2019-04-21T08:10:52.279Z,1015.29
2019-04-21T08:11:50.041Z,1015.29
2019-04-21T08:12:47.767Z,1015.27
2019-04-21T08:13:55.157Z,1015.30
2019-04-21T08:14:50.821Z,1015.27
2019-04-21T08:15:50.985Z,1015.31
2019-04-21T08:17:56.646Z,1015.24
2019-04-21T08:18:52.158Z,1015.27
2019-04-21T08:19:49.718Z,1015.29
2019-04-21T08:20:47.990Z,1015.23
2019-04-21T08:22:03.847Z,1015.27
2019-04-21T08:22:51.810Z,1015.28
2019-04-21T08:23:48.142Z,1015.27
2019-04-21T08:24:49.174Z,1015.27
2019-04-21T08:26:01.150Z,1015.26
2019-04-21T08:26:51.567Z,1015.28
2019-04-21T08:27:55.570Z,1015.26
2019-04-21T08:28:53.741Z,1015.30
2019-04-21T08:29:54.460Z,1015.28
2019-04-21T08:30:47.848Z,1015.24
2019-04-21T08:32:00.870Z,1015.22
2019-04-21T08:33:00.822Z,1015.19
2019-04-21T08:33:56.430Z,1015.23
2019-04-21T08:35:08.519Z,1015.25
2019-04-21T08:36:11.024Z,1015.18
2019-04-21T08:36:51.602Z,1015.18
2019-04-21T08:37:50.959Z,1015.21
2019-04-21T08:38:55.512Z,1015.23
2019-04-21T08:40:09.806Z,1015.19
2019-04-21T08:40:52.879Z,1015.16
2019-04-21T08:41:51.239Z,1015.21
2019-04-21T08:42:51.645Z,1015.15
2019-04-21T08:43:51.947Z,1015.17
2019-04-21T08:44:52.468Z,1015.18
2019-04-21T08:45:57.299Z,1015.14
2019-04-21T08:46:52.836Z,1015.09
2019-04-21T08:47:52.072Z,1015.11
2019-04-21T08:48:57.950Z,1015.11
2019-04-21T08:49:56.903Z,1015.10
2019-04-21T08:50:53.843Z,1015.08
2019-04-21T08:51:53.965Z,1015.07
2019-04-21T08:52:57.044Z,1015.03
2019-04-21T08:53:57.423Z,1015.06
2019-04-21T08:54:55.818Z,1015.00
2019-04-21T08:55:58.025Z,1014.96
2019-04-21T08:56:54.691Z,1015.05
2019-04-21T08:58:02.384Z,1015.01
2019-04-21T08:58:56.068Z,1014.98
2019-04-21T08:59:51.872Z,1015.02
2019-04-21T09:00:56.581Z,1014.96
2019-04-21T09:01:48.945Z,1014.95
2019-04-21T09:02:57.611Z,1014.99
2019-04-21T09:03:52.093Z,1014.95
2019-04-21T09:04:54.179Z,1014.99
2019-04-21T09:05:52.629Z,1014.94
2019-04-21T09:07:51.031Z,1014.94
2019-04-21T09:09:52.938Z,1014.92
2019-04-21T09:10:56.054Z,1014.87
2019-04-21T09:11:54.293Z,1014.85
2019-04-21T09:12:49.046Z,1014.86
2019-04-21T09:13:47.704Z,1014.88
2019-04-21T09:14:50.666Z,1014.82
2019-04-21T09:15:50.721Z,1014.85
2019-04-21T09:16:47.560Z,1014.79
2019-04-21T09:17:40.855Z,1014.80
2019-04-21T09:18:47.274Z,1014.78
2019-04-21T09:20:52.137Z,1014.80
2019-04-21T09:20:55.274Z,1014.83
2019-04-21T09:21:49.985Z,1014.81
2019-04-21T09:22:52.562Z,1014.78
2019-04-21T09:23:54.509Z,1014.77
2019-04-21T09:24:51.921Z,1014.79
2019-04-21T09:25:55.468Z,1014.77
2019-04-21T09:26:48.099Z,1014.77
2019-04-21T09:27:53.019Z,1014.79
2019-04-21T09:28:46.415Z,1014.67
2019-04-21T09:29:39.231Z,1014.72
2019-04-21T09:30:39.582Z,1014.67
2019-04-21T09:31:36.574Z,1014.61
2019-04-21T09:32:33.435Z,1014.70
2019-04-21T09:33:37.745Z,1014.68
2019-04-21T09:34:36.991Z,1014.62
2019-04-21T09:35:31.592Z,1014.59
2019-04-21T09:36:37.730Z,1014.55
2019-04-21T09:37:40.958Z,1014.54
2019-04-21T09:38:37.155Z,1014.53
2019-04-21T09:39:33.272Z,1014.48
2019-04-21T09:40:37.250Z,1014.44
2019-04-21T09:41:34.878Z,1014.50
2019-04-21T09:42:38.389Z,1014.44
2019-04-21T09:43:41.150Z,1014.40
2019-04-21T09:44:36.742Z,1014.45
2019-04-21T09:45:31.265Z,1014.46
2019-04-21T09:46:34.153Z,1014.45
2019-04-21T09:47:41.811Z,1014.38
2019-04-21T09:48:44.287Z,1014.42
2019-04-21T09:49:33.228Z,1014.44
2019-04-21T09:50:30.202Z,1014.42
2019-04-21T09:51:30.586Z,1014.40
2019-04-21T09:52:37.553Z,1014.45
2019-04-21T09:53:35.154Z,1014.41
2019-04-21T09:54:34.021Z,1014.39
2019-04-21T09:55:41.551Z,1014.43
2019-04-21T09:56:40.681Z,1014.41
2019-04-21T09:57:39.154Z,1014.43
2019-04-21T09:58:38.674Z,1014.36
2019-04-21T09:59:35.593Z,1014.35
2019-04-21T10:00:43.548Z,1014.34
2019-04-21T10:01:45.085Z,1014.34
2019-04-21T10:02:37.563Z,1014.30
2019-04-21T10:03:39.606Z,1014.31
2019-04-21T10:04:31.199Z,1014.25
2019-04-21T10:05:30.022Z,1014.25
2019-04-21T10:06:30.652Z,1014.24
2019-04-21T10:07:36.491Z,1014.19
2019-04-21T10:08:31.859Z,1014.21
2019-04-21T10:09:31.056Z,1014.19
2019-04-21T10:10:29.965Z,1014.17
2019-04-21T10:11:31.053Z,1014.17
2019-04-21T10:12:30.661Z,1014.18
2019-04-21T10:13:29.954Z,1014.10
2019-04-21T10:14:30.935Z,1014.08
2019-04-21T10:15:29.914Z,1014.06
2019-04-21T10:16:29.975Z,1014.05
2019-04-21T10:17:29.919Z,1014.05
2019-04-21T10:18:29.905Z,1014.09
2019-04-21T10:19:29.884Z,1014.00
2019-04-21T10:20:30.899Z,1014.02
2019-04-21T10:21:29.877Z,1014.00
2019-04-21T10:22:30.995Z,1014.03
2019-04-21T10:23:29.863Z,1013.95
2019-04-21T10:24:30.667Z,1013.99
2019-04-21T10:25:30.657Z,1013.95
2019-04-21T10:26:30.548Z,1013.90
2019-04-21T10:27:29.802Z,1013.88
2019-04-21T10:28:30.982Z,1013.84
2019-04-21T10:29:32.696Z,1013.82
2019-04-21T10:30:30.730Z,1013.84
2019-04-21T10:31:29.762Z,1013.80
2019-04-21T10:32:30.216Z,1013.72
2019-04-21T10:33:30.357Z,1013.76
2019-04-21T10:34:29.706Z,1013.75
2019-04-21T10:35:30.949Z,1013.77
2019-04-21T10:36:30.949Z,1013.78
2019-04-21T10:37:42.543Z,1013.79
2019-04-21T10:38:40.125Z,1013.80
2019-04-21T10:39:31.555Z,1013.76
2019-04-21T10:40:32.567Z,1013.73
2019-04-21T10:41:29.849Z,1013.69
2019-04-21T10:42:29.686Z,1013.68
2019-04-21T10:43:29.646Z,1013.68
2019-04-21T10:44:29.637Z,1013.61
2019-04-21T10:45:30.740Z,1013.59
2019-04-21T10:46:30.730Z,1013.61
2019-04-21T10:47:29.564Z,1013.58
2019-04-21T10:48:31.722Z,1013.65
2019-04-21T10:49:30.669Z,1013.60
2019-04-21T10:50:29.550Z,1013.61
2019-04-21T10:51:30.823Z,1013.59
2019-04-21T10:52:31.260Z,1013.57
2019-04-21T10:53:29.534Z,1013.58
2019-04-21T10:54:42.049Z,1013.55
2019-04-21T10:55:44.674Z,1013.55
2019-04-21T10:56:36.325Z,1013.50
2019-04-21T10:57:30.620Z,1013.48
2019-04-21T10:58:29.478Z,1013.47
2019-04-21T10:59:29.432Z,1013.50
2019-04-21T11:00:30.115Z,1013.43
2019-04-21T11:01:29.578Z,1013.42
2019-04-21T11:02:30.625Z,1013.40
2019-04-21T11:03:30.914Z,1013.44
2019-04-21T11:04:33.724Z,1013.44
2019-04-21T11:05:30.573Z,1013.43
2019-04-21T11:06:30.800Z,1013.40
2019-04-21T11:07:33.479Z,1013.35
2019-04-21T11:08:35.698Z,1013.36
2019-04-21T11:09:31.776Z,1013.33
2019-04-21T11:10:29.781Z,1013.31
2019-04-21T11:11:30.190Z,1013.34
2019-04-21T11:12:29.321Z,1013.31
2019-04-21T11:13:30.617Z,1013.27
2019-04-21T11:14:29.423Z,1013.28
2019-04-21T11:15:29.476Z,1013.28
2019-04-21T11:16:29.346Z,1013.28
2019-04-21T11:17:30.235Z,1013.29
2019-04-21T11:18:30.069Z,1013.30
2019-04-21T11:19:30.581Z,1013.27
2019-04-21T11:20:29.220Z,1013.25
2019-04-21T11:21:29.342Z,1013.22
2019-04-21T11:22:30.663Z,1013.20
2019-04-21T11:23:29.163Z,1013.19
2019-04-21T11:24:29.257Z,1013.12
2019-04-21T11:25:30.437Z,1013.14
2019-04-21T11:26:29.860Z,1013.11
2019-04-21T11:27:29.153Z,1013.03
2019-04-21T11:28:29.350Z,1013.02
2019-04-21T11:29:29.106Z,1013.03
2019-04-21T11:30:29.765Z,1013.03
2019-04-21T11:31:29.277Z,1013.05
2019-04-21T11:32:29.075Z,1013.05
2019-04-21T11:33:29.100Z,1013.03
2019-04-21T11:34:29.314Z,1012.97
2019-04-21T11:35:29.046Z,1012.99
2019-04-21T11:36:29.241Z,1012.98
2019-04-21T11:37:30.400Z,1012.91
2019-04-21T11:38:31.810Z,1012.93
2019-04-21T11:39:39.168Z,1012.94
2019-04-21T11:40:29.988Z,1012.91
2019-04-21T11:41:29.821Z,1012.92
2019-04-21T11:42:30.066Z,1012.87
2019-04-21T11:43:28.968Z,1012.91
2019-04-21T11:44:29.120Z,1012.86
2019-04-21T11:45:30.432Z,1012.89
2019-04-21T11:46:28.909Z,1012.82
2019-04-21T11:47:30.239Z,1012.80
2019-04-21T11:48:30.260Z,1012.86
2019-04-21T11:49:31.975Z,1012.82
2019-04-21T11:50:28.873Z,1012.83
2019-04-21T11:51:29.018Z,1012.78
2019-04-21T11:52:29.184Z,1012.78
2019-04-21T11:53:28.918Z,1012.88
2019-04-21T11:54:28.900Z,1012.82
2019-04-21T11:55:34.299Z,1012.82
2019-04-21T11:56:30.500Z,1012.80
2019-04-21T11:57:34.967Z,1012.75
2019-04-21T11:58:29.963Z,1012.74
2019-04-21T11:59:29.863Z,1012.77
2019-04-21T12:00:29.498Z,1012.74
2019-04-21T12:01:29.733Z,1012.75
2019-04-21T12:02:29.768Z,1012.74
2019-04-21T12:03:29.477Z,1012.74
2019-04-21T12:04:29.529Z,1012.69
2019-04-21T12:05:29.726Z,1012.65
2019-04-21T12:06:35.100Z,1012.63
2019-04-21T12:07:29.702Z,1012.61
2019-04-21T12:08:37.231Z,1012.63
2019-04-21T12:09:29.662Z,1012.62
2019-04-21T12:10:29.307Z,1012.62
2019-04-21T12:11:29.405Z,1012.51
2019-04-21T12:12:29.617Z,1012.40
2019-04-21T12:13:29.927Z,1012.53
2019-04-21T12:14:30.148Z,1012.51
2019-04-21T12:15:29.190Z,1012.51
2019-04-21T12:16:28.836Z,1012.49
2019-04-21T12:17:29.898Z,1012.42
2019-04-21T12:18:30.140Z,1012.44
2019-04-21T12:19:28.558Z,1012.44
2019-04-21T12:20:28.664Z,1012.46
2019-04-21T12:21:39.050Z,1012.40
2019-04-21T12:22:32.520Z,1012.36
2019-04-21T12:23:28.518Z,1012.30
2019-04-21T12:24:31.146Z,1012.33
2019-04-21T12:25:29.174Z,1012.37
2019-04-21T12:26:28.483Z,1012.29
2019-04-21T12:27:29.836Z,1012.30
2019-04-21T12:28:30.097Z,1012.28
2019-04-21T12:29:29.099Z,1012.27
2019-04-21T12:30:29.421Z,1012.28
2019-04-21T12:31:29.691Z,1012.27
2019-04-21T12:32:28.400Z,1012.20
2019-04-21T12:33:29.658Z,1012.20
2019-04-21T12:34:28.380Z,1012.18
2019-04-21T12:35:28.395Z,1012.18
2019-04-21T12:36:29.521Z,1012.16
2019-04-21T12:37:28.926Z,1012.11
2019-04-21T12:38:38.073Z,1012.08
2019-04-21T12:39:30.539Z,1012.03
2019-04-21T12:40:28.462Z,1012.09
2019-04-21T12:41:28.782Z,1012.03
2019-04-21T12:42:28.291Z,1011.99
2019-04-21T12:43:28.580Z,1012.02
2019-04-21T12:44:29.455Z,1012.04
2019-04-21T12:45:28.393Z,1012.06
2019-04-21T12:46:28.253Z,1012.02
2019-04-21T12:47:28.250Z,1012.03
2019-04-21T12:48:29.520Z,1011.95
2019-04-21T12:49:29.651Z,1011.97
2019-04-21T12:50:28.228Z,1012.02
2019-04-21T12:51:28.202Z,1011.99
2019-04-21T12:52:29.408Z,1011.93
2019-04-21T12:53:29.602Z,1011.96
2019-04-21T12:54:28.168Z,1011.99
2019-04-21T12:55:31.905Z,1011.97
2019-04-21T12:56:29.489Z,1011.94
2019-04-21T12:57:30.247Z,1011.95
2019-04-21T12:58:29.103Z,1011.93
2019-04-21T12:59:29.661Z,1011.89